Time;durP1;ratioP1;P1;durP2;ratioP2;P2;SDS_P1;SDS_P2;PMS_P1;PMS_P2;Temp;Humidity;BMP_temperature;BMP_pressure;BME280_temperature;BME280_humidity;BME280_pressure;Samples;Min_cycle;Max_cycle;Signal;HPM_P1;HPM_P2
2024/01/23 00:00:48;;;;;;;16.30;12.47;;;9.20;53.20;;;;;;4935096;28;20193;-84
2024/01/23 00:03:14;;;;;;;17.57;12.87;;;9.20;53.10;;;;;;4936140;29;20181;-84
2024/01/23 00:05:39;;;;;;;16.23;12.20;;;9.20;53.30;;;;;;4933871;29;20190;-84
2024/01/23 00:08:05;;;;;;;15.73;12.33;;;9.20;53.50;;;;;;4936623;28;20177;-83
2024/01/23 00:10:31;;;;;;;17.00;12.83;;;9.20;53.60;;;;;;4935818;29;20247;-84
2024/01/23 00:12:56;;;;;;;21.23;13.07;;;9.20;53.60;;;;;;4934668;28;20232;-84
2024/01/23 00:15:22;;;;;;;16.90;12.40;;;9.20;53.60;;;;;;4951992;28;20205;-83
2024/01/23 00:17:48;;;;;;;17.87;13.53;;;9.20;53.90;;;;;;4949139;29;20201;-84
2024/01/23 00:20:13;;;;;;;18.93;13.90;;;9.20;54.00;;;;;;4952812;28;20183;-84
2024/01/23 00:22:39;;;;;;;18.70;13.63;;;9.10;54.00;;;;;;4934948;29;20173;-83
2024/01/23 00:25:05;;;;;;;17.07;12.63;;;9.10;54.10;;;;;;4949841;28;20199;-84
2024/01/23 00:27:31;;;;;;;15.23;11.93;;;9.10;54.20;;;;;;4935179;29;20184;-84
2024/01/23 00:29:56;;;;;;;16.93;12.10;;;9.10;54.10;;;;;;4934707;29;20185;-84
2024/01/23 00:32:25;;;;;;;15.63;12.83;;;9.20;54.10;;;;;;4934523;28;20184;-85
2024/01/23 00:34:50;;;;;;;16.67;12.77;;;9.20;54.00;;;;;;4935144;29;20200;-84
2024/01/23 00:37:16;;;;;;;17.77;12.20;;;9.20;54.10;;;;;;4932244;29;20204;-84
2024/01/23 00:39:42;;;;;;;14.67;11.70;;;9.20;54.20;;;;;;4934180;29;20177;-84
2024/01/23 00:42:08;;;;;;;17.80;13.53;;;9.20;54.20;;;;;;4935470;29;20237;-84
2024/01/23 00:44:34;;;;;;;17.40;12.70;;;9.30;54.40;;;;;;4951605;28;20285;-83
2024/01/23 00:47:00;;;;;;;16.77;12.27;;;9.20;54.20;;;;;;4935435;29;20281;-84
2024/01/23 00:49:25;;;;;;;15.67;13.30;;;9.20;54.30;;;;;;4935085;29;20200;-84
2024/01/23 00:51:51;;;;;;;16.13;11.13;;;9.20;54.30;;;;;;4933866;29;20189;-83
2024/01/23 00:54:17;;;;;;;17.70;12.30;;;9.20;54.40;;;;;;4934912;29;20264;-86
2024/01/23 00:56:43;;;;;;;15.93;13.00;;;9.20;54.40;;;;;;4933852;29;20276;-83
2024/01/23 00:59:11;;;;;;;16.40;12.83;;;9.20;54.40;;;;;;4953811;29;20216;-85
2024/01/23 01:01:37;;;;;;;19.07;13.10;;;9.20;54.50;;;;;;4934573;28;20678;-83
2024/01/23 01:04:03;;;;;;;15.53;12.63;;;9.20;54.40;;;;;;4948760;28;20193;-84
2024/01/23 01:06:29;;;;;;;18.57;12.20;;;9.20;54.40;;;;;;4934990;29;20188;-83
2024/01/23 01:08:55;;;;;;;18.23;12.30;;;9.30;54.40;;;;;;4931679;29;20560;-83
2024/01/23 01:11:21;;;;;;;16.47;12.33;;;9.30;54.40;;;;;;4933963;29;20174;-85
2024/01/23 01:13:46;;;;;;;18.83;13.07;;;9.30;54.40;;;;;;4932020;29;20623;-84
2024/01/23 01:16:12;;;;;;;16.20;11.97;;;9.30;54.60;;;;;;4915772;29;20774;-85
2024/01/23 01:18:40;;;;;;;18.00;11.87;;;9.20;54.50;;;;;;4929349;29;20189;-84
2024/01/23 01:21:07;;;;;;;18.83;12.23;;;9.20;54.60;;;;;;4931137;29;20185;-83
2024/01/23 01:23:33;;;;;;;14.03;11.07;;;9.20;54.60;;;;;;4914504;29;20185;-83
2024/01/23 01:26:00;;;;;;;18.23;11.93;;;9.20;54.60;;;;;;4901293;29;20273;-84
2024/01/23 01:28:25;;;;;;;14.13;11.10;;;9.40;54.70;;;;;;4917889;29;20686;-85
2024/01/23 01:30:51;;;;;;;16.07;11.87;;;9.40;54.60;;;;;;4922795;29;20190;-85
2024/01/23 01:33:17;;;;;;;17.40;11.93;;;9.40;54.60;;;;;;4915851;29;20644;-85
2024/01/23 01:35:43;;;;;;;15.00;11.57;;;9.40;54.50;;;;;;4914735;29;20214;-84
2024/01/23 01:38:08;;;;;;;16.90;12.50;;;9.40;54.50;;;;;;4916535;29;20524;-85
2024/01/23 01:40:34;;;;;;;15.17;11.20;;;9.30;54.50;;;;;;4915566;29;20225;-85
2024/01/23 01:43:00;;;;;;;12.90;10.93;;;9.40;54.60;;;;;;4914812;29;20201;-84
2024/01/23 01:45:25;;;;;;;14.17;11.10;;;9.30;54.60;;;;;;4915271;29;20658;-83
2024/01/23 01:47:52;;;;;;;15.37;10.93;;;9.50;54.70;;;;;;4929712;29;20187;-84
2024/01/23 01:50:19;;;;;;;14.20;10.40;;;9.40;54.60;;;;;;4933206;29;20179;-83
2024/01/23 01:52:45;;;;;;;14.53;11.30;;;9.40;54.60;;;;;;4910985;29;20179;-83
2024/01/23 01:55:11;;;;;;;14.93;11.03;;;9.40;54.50;;;;;;4921177;29;20272;-85
2024/01/23 01:57:39;;;;;;;18.00;11.03;;;9.40;54.50;;;;;;4928502;29;20202;-84
2024/01/23 02:00:06;;;;;;;16.67;11.10;;;9.40;54.40;;;;;;4915987;29;20552;-85
2024/01/23 02:02:32;;;;;;;17.37;11.53;;;9.40;54.30;;;;;;4914067;29;20189;-84
2024/01/23 02:04:58;;;;;;;17.40;11.53;;;9.40;54.40;;;;;;4911168;29;20213;-84
2024/01/23 02:07:23;;;;;;;16.13;11.57;;;9.40;54.40;;;;;;4915259;29;20665;-84
2024/01/23 02:09:49;;;;;;;14.13;10.17;;;9.40;54.40;;;;;;4914551;29;20556;-85
2024/01/23 02:12:15;;;;;;;15.73;11.47;;;9.40;54.50;;;;;;4919722;29;20225;-85
2024/01/23 02:14:41;;;;;;;16.87;10.97;;;9.40;54.90;;;;;;4948730;28;20224;-84
2024/01/23 02:17:07;;;;;;;17.20;11.30;;;9.40;54.50;;;;;;4937570;29;20678;-84
2024/01/23 02:19:32;;;;;;;17.47;12.20;;;9.50;54.50;;;;;;4951897;28;20193;-85
2024/01/23 02:21:58;;;;;;;16.37;11.37;;;9.40;54.40;;;;;;4936752;29;20224;-84
2024/01/23 02:24:24;;;;;;;14.63;10.27;;;9.50;54.60;;;;;;4937731;29;20185;-85
2024/01/23 02:26:49;;;;;;;17.27;11.07;;;9.50;54.50;;;;;;4952686;29;20182;-85
2024/01/23 02:29:16;;;;;;;16.10;11.20;;;9.50;54.50;;;;;;4955820;29;20181;-84
2024/01/23 02:31:42;;;;;;;16.23;11.60;;;9.40;54.40;;;;;;4933763;29;20189;-83
2024/01/23 02:34:08;;;;;;;17.90;11.73;;;9.50;54.50;;;;;;4937188;28;20193;-84
2024/01/23 02:36:39;;;;;;;15.33;10.80;;;9.40;54.40;;;;;;4937432;29;20196;-85
2024/01/23 02:39:05;;;;;;;15.33;11.03;;;9.50;54.50;;;;;;4951032;29;20196;-84
2024/01/23 02:41:31;;;;;;;16.60;10.73;;;9.40;54.50;;;;;;4936853;29;20181;-85
2024/01/23 02:43:56;;;;;;;16.00;11.30;;;9.40;54.50;;;;;;4937634;29;20200;-83
2024/01/23 02:46:22;;;;;;;16.50;10.00;;;9.50;54.60;;;;;;4937628;28;20185;-85
2024/01/23 02:48:48;;;;;;;15.93;10.77;;;9.40;54.50;;;;;;4936248;29;20647;-84
2024/01/23 02:51:20;;;;;;;16.83;10.90;;;9.50;54.60;;;;;;4937424;29;20264;-84
2024/01/23 02:53:46;;;;;;;15.67;10.50;;;9.40;54.50;;;;;;4935130;29;20666;-83
2024/01/23 02:56:12;;;;;;;16.57;10.30;;;9.40;54.50;;;;;;4955123;28;20259;-84
2024/01/23 02:58:40;;;;;;;16.53;10.90;;;9.40;54.50;;;;;;4952877;28;20678;-84
2024/01/23 03:01:05;;;;;;;15.77;9.67;;;9.50;54.60;;;;;;4936091;29;20272;-85
2024/01/23 03:03:31;;;;;;;15.23;10.00;;;9.40;54.40;;;;;;4936659;29;20285;-84
2024/01/23 03:05:56;;;;;;;13.70;9.30;;;9.40;54.40;;;;;;4952032;28;20189;-84
2024/01/23 03:08:23;;;;;;;15.33;9.77;;;9.40;54.40;;;;;;4937270;29;20192;-85
2024/01/23 03:10:49;;;;;;;18.23;10.27;;;9.40;54.50;;;;;;4936431;28;20208;-85
2024/01/23 03:13:15;;;;;;;15.57;9.53;;;9.40;54.50;;;;;;4936523;29;20225;-83
2024/01/23 03:15:40;;;;;;;14.00;9.93;;;9.50;54.60;;;;;;4936400;29;20694;-84
2024/01/23 03:18:06;;;;;;;12.77;9.10;;;9.40;54.50;;;;;;4934293;29;20194;-84
2024/01/23 03:20:33;;;;;;;16.53;9.97;;;9.40;54.60;;;;;;4936169;29;20192;-85
2024/01/23 03:22:59;;;;;;;14.23;9.00;;;9.40;54.60;;;;;;4951592;28;20251;-83
2024/01/23 03:25:25;;;;;;;13.77;9.40;;;9.40;54.60;;;;;;4936384;29;20197;-85
2024/01/23 03:27:51;;;;;;;13.67;9.33;;;9.40;54.60;;;;;;4928233;29;20198;-84
2024/01/23 03:30:30;;;;;;;14.47;9.10;;;9.40;54.60;;;;;;4933627;29;20283;-83
2024/01/23 03:32:56;;;;;;;12.80;9.13;;;9.50;54.70;;;;;;4935037;29;20623;-85
2024/01/23 03:35:22;;;;;;;14.77;9.23;;;9.40;55.10;;;;;;4936675;29;20651;-84
2024/01/23 03:37:48;;;;;;;13.97;9.00;;;9.30;54.50;;;;;;4951900;28;20187;-85
2024/01/23 03:40:14;;;;;;;12.53;9.07;;;9.30;54.50;;;;;;4936435;29;20199;-84
2024/01/23 03:42:40;;;;;;;15.07;9.73;;;9.30;54.50;;;;;;4936396;29;20540;-83
2024/01/23 03:45:06;;;;;;;14.93;9.03;;;9.30;54.60;;;;;;4935524;29;20193;-85
2024/01/23 03:47:32;;;;;;;16.33;9.53;;;9.30;54.60;;;;;;4952314;29;20224;-85
2024/01/23 03:49:57;;;;;;;16.47;9.63;;;9.30;54.60;;;;;;4936319;29;20623;-85
2024/01/23 03:52:23;;;;;;;11.23;8.83;;;9.40;54.60;;;;;;4936247;29;20191;-84
2024/01/23 03:54:49;;;;;;;12.97;9.10;;;9.30;54.50;;;;;;4935154;29;20209;-83
2024/01/23 03:57:15;;;;;;;15.27;8.97;;;9.50;54.70;;;;;;4935742;29;20193;-84
2024/01/23 03:59:43;;;;;;;13.60;9.00;;;9.40;54.60;;;;;;4952244;28;20197;-84
2024/01/23 04:02:09;;;;;;;12.27;8.73;;;9.30;54.50;;;;;;4936247;29;20177;-83
2024/01/23 04:04:36;;;;;;;16.03;9.50;;;9.30;54.60;;;;;;4949988;28;20332;-83
2024/01/23 04:07:02;;;;;;;14.87;9.50;;;9.30;54.50;;;;;;4949138;29;20189;-84
2024/01/23 04:09:28;;;;;;;12.47;8.43;;;9.30;54.50;;;;;;4933026;28;20192;-84
2024/01/23 04:11:54;;;;;;;15.10;9.10;;;9.30;54.60;;;;;;4949403;28;20228;-83
2024/01/23 04:14:20;;;;;;;21.13;9.33;;;9.30;54.60;;;;;;4936010;29;20706;-83
2024/01/23 04:16:46;;;;;;;14.27;9.10;;;9.30;54.50;;;;;;4950425;28;20720;-85
2024/01/23 04:19:12;;;;;;;13.47;8.67;;;9.30;54.50;;;;;;4950051;29;20296;-84
2024/01/23 04:21:38;;;;;;;14.83;8.90;;;9.30;54.50;;;;;;4952028;28;20297;-83
2024/01/23 04:24:03;;;;;;;15.20;8.87;;;9.20;54.50;;;;;;4934645;29;20193;-85
2024/01/23 04:26:29;;;;;;;14.17;9.10;;;9.20;54.60;;;;;;4935497;29;20185;-85
2024/01/23 04:28:55;;;;;;;16.90;10.27;;;9.20;54.60;;;;;;4933601;29;20180;-85
2024/01/23 04:31:21;;;;;;;15.00;9.00;;;9.20;54.60;;;;;;4949559;28;20271;-83
2024/01/23 04:33:47;;;;;;;15.57;9.57;;;9.20;54.60;;;;;;4948961;29;20185;-83
2024/01/23 04:36:13;;;;;;;16.23;9.07;;;9.20;54.70;;;;;;4934096;29;20265;-84
2024/01/23 04:38:39;;;;;;;13.47;8.63;;;9.20;54.70;;;;;;4934787;29;20672;-84
2024/01/23 04:41:04;;;;;;;18.50;9.87;;;9.20;54.70;;;;;;4935072;29;20181;-85
2024/01/23 04:43:30;;;;;;;15.93;9.60;;;9.30;54.70;;;;;;4934762;28;20280;-85
2024/01/23 04:45:56;;;;;;;17.27;9.90;;;9.10;54.60;;;;;;4950109;28;20189;-84
2024/01/23 04:48:21;;;;;;;14.70;9.13;;;9.10;54.60;;;;;;4935275;29;20215;-83
2024/01/23 04:50:47;;;;;;;12.60;8.50;;;9.10;54.80;;;;;;4933094;29;24273;-84
2024/01/23 04:53:12;;;;;;;14.63;8.97;;;9.20;54.90;;;;;;4935962;29;20184;-84
2024/01/23 04:55:38;;;;;;;13.00;9.07;;;9.10;54.90;;;;;;4934898;28;20256;-83
2024/01/23 04:58:04;;;;;;;15.87;9.87;;;9.10;54.80;;;;;;4933856;29;20554;-84
2024/01/23 05:00:30;;;;;;;15.70;10.27;;;9.20;54.90;;;;;;4935258;29;20591;-85
2024/01/23 05:02:56;;;;;;;17.83;9.87;;;9.10;54.70;;;;;;4933338;29;20186;-83
2024/01/23 05:05:21;;;;;;;16.73;10.33;;;9.20;54.80;;;;;;4936106;28;20193;-84
2024/01/23 05:07:47;;;;;;;16.67;10.63;;;9.10;54.70;;;;;;4934968;29;20185;-85
2024/01/23 05:10:13;;;;;;;15.57;10.53;;;9.10;54.70;;;;;;4935006;29;20189;-85
2024/01/23 05:12:38;;;;;;;14.63;10.00;;;9.10;54.70;;;;;;4934209;29;20563;-83
2024/01/23 05:15:04;;;;;;;18.27;11.63;;;9.10;54.60;;;;;;4934264;29;20702;-84
2024/01/23 05:17:31;;;;;;;17.97;10.67;;;9.10;54.70;;;;;;4935317;28;20236;-83
2024/01/23 05:19:57;;;;;;;15.40;10.40;;;9.10;54.70;;;;;;4928933;29;20181;-84
2024/01/23 05:22:23;;;;;;;16.30;10.20;;;9.20;54.80;;;;;;4944983;29;20520;-82
2024/01/23 05:24:48;;;;;;;20.77;11.40;;;9.00;54.70;;;;;;4948016;28;20204;-84
2024/01/23 05:27:14;;;;;;;13.90;10.37;;;9.00;54.80;;;;;;4934606;29;20181;-85
2024/01/23 05:29:40;;;;;;;16.10;10.83;;;9.00;54.70;;;;;;4933916;29;20694;-84
2024/01/23 05:32:06;;;;;;;18.50;11.03;;;9.00;54.80;;;;;;4934511;29;20243;-85
2024/01/23 05:34:31;;;;;;;17.20;11.60;;;9.00;54.70;;;;;;4934663;29;20209;-84
2024/01/23 05:36:58;;;;;;;16.07;10.80;;;9.00;54.80;;;;;;4933893;29;20197;-84
2024/01/23 05:39:24;;;;;;;14.23;10.80;;;9.00;54.90;;;;;;4934701;29;20185;-85
2024/01/23 05:41:50;;;;;;;18.37;11.33;;;9.00;54.90;;;;;;4948609;28;20205;-84
2024/01/23 05:44:15;;;;;;;17.80;11.57;;;9.00;54.90;;;;;;4951407;28;20177;-83
2024/01/23 05:46:41;;;;;;;15.50;10.43;;;9.10;55.00;;;;;;4934598;29;20193;-85
2024/01/23 05:49:06;;;;;;;15.60;10.57;;;9.00;54.90;;;;;;4948297;28;20208;-84
2024/01/23 05:51:32;;;;;;;15.23;10.67;;;9.00;54.90;;;;;;4936583;28;20655;-85
2024/01/23 05:53:58;;;;;;;16.13;12.43;;;9.00;54.90;;;;;;4954240;28;20185;-84
2024/01/23 05:56:24;;;;;;;15.93;11.20;;;8.90;54.90;;;;;;4939055;29;20217;-84
2024/01/23 05:58:50;;;;;;;15.83;11.20;;;8.90;55.00;;;;;;4937683;29;20243;-84
2024/01/23 06:01:15;;;;;;;15.90;11.00;;;8.90;55.00;;;;;;4930532;29;20566;-83
2024/01/23 06:03:41;;;;;;;16.57;11.40;;;8.90;55.10;;;;;;4938351;29;20272;-84
2024/01/23 06:06:06;;;;;;;16.27;10.93;;;8.90;55.20;;;;;;4953810;28;20309;-83
2024/01/23 06:08:32;;;;;;;16.93;11.37;;;8.90;55.20;;;;;;4938610;29;20177;-84
2024/01/23 06:10:58;;;;;;;16.70;11.50;;;9.00;55.20;;;;;;4937502;29;20232;-85
2024/01/23 06:13:24;;;;;;;17.53;11.63;;;8.90;55.20;;;;;;4937649;29;20698;-84
2024/01/23 06:15:50;;;;;;;17.73;11.30;;;8.80;55.20;;;;;;4937895;29;20237;-85
2024/01/23 06:18:16;;;;;;;17.73;11.43;;;8.80;55.20;;;;;;4938318;29;20192;-84
2024/01/23 06:20:43;;;;;;;16.93;11.90;;;8.80;55.40;;;;;;4954783;29;20173;-84
2024/01/23 06:23:09;;;;;;;14.23;10.60;;;8.80;55.40;;;;;;4953170;28;20190;-85
2024/01/23 06:25:34;;;;;;;17.20;11.23;;;8.80;55.40;;;;;;4937574;28;20279;-83
2024/01/23 06:28:00;;;;;;;15.90;11.33;;;8.90;55.40;;;;;;4936793;29;20272;-83
2024/01/23 06:30:25;;;;;;;13.77;10.80;;;8.80;55.40;;;;;;4937881;29;20654;-84
2024/01/23 06:32:51;;;;;;;15.53;11.23;;;8.80;55.50;;;;;;4935312;29;20184;-85
2024/01/23 06:35:17;;;;;;;18.30;11.67;;;8.80;55.50;;;;;;4954217;29;20209;-84
2024/01/23 06:37:42;;;;;;;17.83;12.07;;;8.80;55.60;;;;;;4937410;29;20185;-84
2024/01/23 06:40:09;;;;;;;19.63;12.30;;;8.70;55.50;;;;;;4951915;29;20189;-85
2024/01/23 06:42:35;;;;;;;18.97;12.33;;;8.70;55.50;;;;;;4953443;28;20192;-83
2024/01/23 06:45:01;;;;;;;15.87;11.93;;;8.70;55.60;;;;;;4934663;29;20576;-85
2024/01/23 06:47:26;;;;;;;13.40;10.77;;;8.70;55.60;;;;;;4938137;29;20536;-83
2024/01/23 06:49:52;;;;;;;18.67;12.87;;;8.80;55.80;;;;;;4936415;29;20189;-85
2024/01/23 06:52:18;;;;;;;15.83;11.70;;;8.70;55.70;;;;;;4952032;28;20189;-84
2024/01/23 06:54:43;;;;;;;17.13;12.47;;;8.70;55.70;;;;;;4937314;29;20207;-85
2024/01/23 06:57:09;;;;;;;17.63;11.90;;;8.70;55.70;;;;;;4934897;29;20189;-84
2024/01/23 06:59:34;;;;;;;15.40;11.57;;;8.70;55.80;;;;;;4938099;29;20215;-85
2024/01/23 07:02:00;;;;;;;17.73;11.97;;;8.70;55.80;;;;;;4952587;28;20628;-83
2024/01/23 07:04:25;;;;;;;17.20;11.83;;;8.70;55.90;;;;;;4951504;29;20333;-85
2024/01/23 07:06:51;;;;;;;17.53;11.30;;;8.70;55.80;;;;;;4937303;28;20189;-84
2024/01/23 07:09:17;;;;;;;18.63;12.37;;;8.70;55.80;;;;;;4934554;29;20186;-84
2024/01/23 07:11:43;;;;;;;16.60;11.70;;;8.80;56.10;;;;;;4953452;28;20229;-84
2024/01/23 07:14:09;;;;;;;19.43;11.73;;;8.60;56.00;;;;;;4953062;28;20185;-85
2024/01/23 07:16:35;;;;;;;14.70;10.73;;;8.60;56.10;;;;;;4952519;29;20195;-83
2024/01/23 07:19:01;;;;;;;15.17;10.40;;;8.80;56.20;;;;;;4935678;28;20189;-85
2024/01/23 07:21:26;;;;;;;17.80;10.87;;;8.60;56.10;;;;;;4936517;29;21082;-83
2024/01/23 07:23:52;;;;;;;16.70;10.67;;;8.80;56.30;;;;;;4952590;29;20183;-84
2024/01/23 07:26:18;;;;;;;16.70;10.77;;;8.70;56.20;;;;;;4937612;29;20232;-84
2024/01/23 07:28:44;;;;;;;15.93;10.33;;;8.70;56.40;;;;;;4936403;29;20205;-85
2024/01/23 07:31:11;;;;;;;18.83;11.17;;;8.70;56.40;;;;;;4935817;29;20652;-83
2024/01/23 07:33:37;;;;;;;17.53;11.43;;;8.80;56.40;;;;;;4934083;28;20221;-84
2024/01/23 07:36:03;;;;;;;14.60;10.03;;;8.80;56.40;;;;;;4951026;28;20251;-85
2024/01/23 07:38:28;;;;;;;16.43;10.83;;;8.80;56.40;;;;;;4936964;29;20557;-85
2024/01/23 07:40:54;;;;;;;18.33;11.27;;;8.80;56.40;;;;;;4950213;28;20244;-85
2024/01/23 07:43:26;;;;;;;16.67;11.20;;;8.80;56.40;;;;;;4936331;29;20193;-85
2024/01/23 07:45:53;;;;;;;15.87;9.97;;;8.80;56.40;;;;;;4951879;29;20218;-85
2024/01/23 07:48:19;;;;;;;18.23;10.03;;;8.90;56.50;;;;;;4934615;29;20196;-84
2024/01/23 07:50:45;;;;;;;14.60;9.13;;;8.90;56.60;;;;;;4935746;28;20268;-84
2024/01/23 07:53:10;;;;;;;17.27;9.97;;;8.90;56.60;;;;;;4935723;29;20209;-86
2024/01/23 07:55:36;;;;;;;16.83;9.20;;;9.00;56.60;;;;;;4936065;28;20295;-83
2024/01/23 07:58:02;;;;;;;15.53;8.90;;;9.00;56.50;;;;;;4935248;28;20666;-85
2024/01/23 08:00:28;;;;;;;12.43;8.17;;;9.00;56.50;;;;;;4933723;29;20256;-85
2024/01/23 08:02:54;;;;;;;14.43;8.33;;;9.00;56.60;;;;;;4951973;28;20185;-85
2024/01/23 08:05:20;;;;;;;14.67;9.27;;;9.00;56.60;;;;;;4936696;29;20340;-84
2024/01/23 08:07:45;;;;;;;14.73;8.70;;;9.00;56.70;;;;;;4935595;29;20653;-83
2024/01/23 08:10:11;;;;;;;15.03;8.93;;;9.00;56.70;;;;;;4934678;28;20181;-85
2024/01/23 08:12:37;;;;;;;14.13;8.63;;;9.00;56.80;;;;;;4935613;29;20225;-84
2024/01/23 08:15:03;;;;;;;12.73;8.50;;;9.10;56.90;;;;;;4932614;29;20212;-85
2024/01/23 08:17:29;;;;;;;11.67;8.20;;;9.10;56.80;;;;;;4953511;28;20185;-84
2024/01/23 08:19:55;;;;;;;14.87;8.67;;;9.10;56.80;;;;;;4935763;29;20245;-84
2024/01/23 08:22:21;;;;;;;14.57;8.60;;;9.10;56.80;;;;;;4935343;29;20622;-84
2024/01/23 08:24:46;;;;;;;14.27;8.13;;;9.10;56.90;;;;;;4935725;28;20233;-83
2024/01/23 08:27:12;;;;;;;13.93;8.83;;;9.20;56.80;;;;;;4932669;29;20325;-83
2024/01/23 08:29:38;;;;;;;12.93;8.73;;;9.10;56.80;;;;;;4936451;29;20191;-85
2024/01/23 08:32:03;;;;;;;10.90;8.07;;;9.10;56.80;;;;;;4934835;29;20189;-84
2024/01/23 08:34:30;;;;;;;13.97;8.87;;;9.10;56.80;;;;;;4949434;29;20212;-84
2024/01/23 08:36:56;;;;;;;15.83;8.73;;;9.20;56.90;;;;;;4934803;29;20202;-83
2024/01/23 08:39:22;;;;;;;14.73;7.73;;;9.20;56.90;;;;;;4934046;29;20193;-84
2024/01/23 08:41:48;;;;;;;12.90;8.87;;;9.20;56.80;;;;;;4934471;29;20543;-84
2024/01/23 08:44:14;;;;;;;13.57;8.83;;;9.20;56.80;;;;;;4935226;29;20271;-83
2024/01/23 08:46:39;;;;;;;11.50;8.00;;;9.20;56.80;;;;;;4935118;29;20276;-85
2024/01/23 08:49:05;;;;;;;13.50;8.47;;;9.10;56.80;;;;;;4934441;29;20191;-85
2024/01/23 08:51:30;;;;;;;14.17;9.00;;;9.30;56.90;;;;;;4951426;29;20185;-84
2024/01/23 08:53:57;;;;;;;15.20;8.70;;;9.20;56.80;;;;;;4934362;29;20216;-83
2024/01/23 08:56:23;;;;;;;16.83;9.47;;;9.30;56.90;;;;;;4935936;29;20205;-84
2024/01/23 08:58:49;;;;;;;15.33;9.10;;;9.20;56.70;;;;;;4934973;29;20209;-84
2024/01/23 09:01:16;;;;;;;17.70;9.20;;;9.20;56.70;;;;;;4950420;29;20196;-85
2024/01/23 09:03:42;;;;;;;14.23;9.07;;;9.30;56.70;;;;;;4950520;29;20644;-83
2024/01/23 09:06:09;;;;;;;13.83;8.63;;;9.30;56.80;;;;;;4950627;28;20181;-84
2024/01/23 09:08:35;;;;;;;14.43;9.03;;;9.40;56.70;;;;;;4935658;29;20632;-85
2024/01/23 09:11:01;;;;;;;14.40;8.37;;;9.30;56.70;;;;;;4928281;28;20181;-84
2024/01/23 09:13:31;;;;;;;15.80;9.47;;;9.30;56.70;;;;;;4934477;28;20279;-84
2024/01/23 09:15:58;;;;;;;14.23;8.17;;;9.30;56.70;;;;;;4934949;29;20212;-85
2024/01/23 09:18:23;;;;;;;14.97;8.67;;;9.40;56.90;;;;;;4931804;29;20715;-84
2024/01/23 09:20:49;;;;;;;15.53;8.93;;;9.40;56.80;;;;;;4951576;28;20263;-85
2024/01/23 09:23:15;;;;;;;14.10;8.40;;;9.40;56.60;;;;;;4934728;29;20640;-84
2024/01/23 09:25:40;;;;;;;14.43;9.07;;;9.40;56.60;;;;;;4935230;29;20189;-82
2024/01/23 09:28:06;;;;;;;17.73;9.30;;;9.50;56.50;;;;;;4937886;29;20254;-84
2024/01/23 09:30:32;;;;;;;16.83;9.90;;;9.50;56.40;;;;;;4938781;29;20188;-83
2024/01/23 09:32:59;;;;;;;15.73;10.30;;;9.50;56.40;;;;;;4955071;29;20187;-84
2024/01/23 09:35:24;;;;;;;16.43;9.47;;;9.50;56.40;;;;;;4939041;29;20200;-83
2024/01/23 09:37:50;;;;;;;15.37;9.60;;;9.70;56.50;;;;;;4938497;29;20197;-84
2024/01/23 09:40:15;;;;;;;13.40;8.97;;;9.50;56.20;;;;;;4937771;29;20192;-85
2024/01/23 09:42:41;;;;;;;15.73;8.87;;;9.50;56.30;;;;;;4938940;29;20189;-85
2024/01/23 09:45:18;;;;;;;13.37;8.60;;;9.50;56.40;;;;;;4936291;29;20610;-84
2024/01/23 09:47:46;;;;;;;13.17;8.77;;;9.50;56.40;;;;;;4935708;29;20734;-84
2024/01/23 09:50:13;;;;;;;12.33;7.57;;;9.60;56.30;;;;;;4936946;29;20181;-84
2024/01/23 09:52:43;;;;;;;15.07;9.30;;;9.60;56.30;;;;;;4952599;28;20193;-85
2024/01/23 09:55:09;;;;;;;15.90;8.37;;;9.60;56.30;;;;;;4934395;29;20304;-83
2024/01/23 09:57:37;;;;;;;14.53;9.43;;;9.80;56.40;;;;;;4935709;29;20292;-84
2024/01/23 10:00:11;;;;;;;18.27;8.90;;;9.70;56.20;;;;;;4935962;29;20189;-85
2024/01/23 10:02:38;;;;;;;16.03;9.53;;;9.70;56.20;;;;;;4938903;29;20199;-84
2024/01/23 10:05:16;;;;;;;15.83;9.10;;;9.70;56.10;;;;;;4924170;29;20189;-84
2024/01/23 10:07:42;;;;;;;14.87;8.70;;;9.70;56.00;;;;;;4933685;29;20201;-85
2024/01/23 10:10:13;;;;;;;17.20;9.03;;;9.80;56.10;;;;;;4934234;29;20236;-83
2024/01/23 10:12:41;;;;;;;14.60;8.83;;;9.80;56.10;;;;;;4937719;29;20232;-84
2024/01/23 10:15:10;;;;;;;16.80;8.53;;;9.80;56.00;;;;;;4952567;28;20227;-83
2024/01/23 10:17:35;;;;;;;15.90;8.20;;;9.80;56.00;;;;;;4938460;29;20244;-85
2024/01/23 10:20:01;;;;;;;15.67;8.80;;;9.90;55.90;;;;;;4937194;29;20639;-83
2024/01/23 10:22:27;;;;;;;20.47;9.43;;;9.90;56.00;;;;;;4952124;29;20197;-85
2024/01/23 10:24:52;;;;;;;12.10;8.23;;;9.90;56.00;;;;;;4952493;29;20595;-84
2024/01/23 10:27:18;;;;;;;15.70;8.93;;;9.90;55.90;;;;;;4934772;29;20192;-85
2024/01/23 10:29:44;;;;;;;16.97;9.17;;;10.00;55.00;;;;;;4938896;29;20223;-84
2024/01/23 10:32:09;;;;;;;16.80;8.70;;;9.90;55.80;;;;;;4936620;28;20185;-84
2024/01/23 10:34:35;;;;;;;19.20;10.13;;;10.10;55.00;;;;;;4937462;29;20300;-85
2024/01/23 10:37:01;;;;;;;14.77;9.77;;;10.00;54.90;;;;;;4936755;29;20557;-85
2024/01/23 10:39:27;;;;;;;16.37;9.67;;;10.00;54.90;;;;;;4937548;29;20185;-85
2024/01/23 10:41:53;;;;;;;19.07;9.80;;;9.90;55.50;;;;;;4936987;29;20204;-85
2024/01/23 10:44:25;;;;;;;17.97;9.80;;;9.90;55.50;;;;;;4936085;29;20177;-84
2024/01/23 10:46:54;;;;;;;16.63;9.50;;;10.00;54.80;;;;;;4937024;29;20197;-84
2024/01/23 10:49:20;;;;;;;16.23;9.43;;;9.90;55.40;;;;;;4951837;29;20180;-84
2024/01/23 10:51:49;;;;;;;17.17;9.43;;;9.90;55.50;;;;;;4951649;28;20185;-84
2024/01/23 10:54:31;;;;;;;15.00;9.43;;;9.90;55.60;;;;;;4934808;29;20260;-84
2024/01/23 10:56:58;;;;;;;19.40;10.03;;;10.00;54.80;;;;;;4934714;28;20187;-85
2024/01/23 10:59:30;;;;;;;17.13;10.57;;;10.00;54.70;;;;;;4951710;28;20196;-83
2024/01/23 11:02:05;;;;;;;17.17;10.10;;;10.00;54.60;;;;;;4936844;29;20596;-84
2024/01/23 11:04:31;;;;;;;15.90;10.50;;;10.00;54.60;;;;;;4951147;28;20200;-83
2024/01/23 11:07:22;;;;;;;17.37;9.97;;;10.00;54.50;;;;;;4936954;29;20189;-85
2024/01/23 11:10:00;;;;;;;18.93;9.87;;;10.00;54.50;;;;;;4937535;29;20197;-84
2024/01/23 11:12:52;;;;;;;16.40;10.23;;;10.00;54.60;;;;;;4936202;29;20226;-85
2024/01/23 11:15:18;;;;;;;16.00;10.00;;;9.90;55.30;;;;;;4935107;29;20742;-84
2024/01/23 11:17:44;;;;;;;16.70;10.20;;;9.90;55.30;;;;;;4933943;29;20636;-85
2024/01/23 11:20:14;;;;;;;18.67;10.00;;;9.90;55.20;;;;;;4935669;29;20192;-83
2024/01/23 11:22:40;;;;;;;15.97;10.10;;;9.90;55.30;;;;;;4951158;28;20181;-83
2024/01/23 11:25:10;;;;;;;14.37;9.03;;;9.90;55.30;;;;;;4935842;29;20199;-85
2024/01/23 11:27:38;;;;;;;19.20;9.23;;;9.90;55.30;;;;;;4936980;29;20626;-84
2024/01/23 11:30:04;;;;;;;16.37;9.70;;;9.90;55.30;;;;;;4951976;28;20268;-84
2024/01/23 11:32:30;;;;;;;15.90;9.73;;;9.90;55.30;;;;;;4937352;29;20178;-83
2024/01/23 11:35:03;;;;;;;15.20;9.23;;;9.90;55.20;;;;;;4935938;29;20223;-84
2024/01/23 11:37:35;;;;;;;12.73;9.03;;;9.90;55.30;;;;;;4936538;28;20197;-83
2024/01/23 11:40:06;;;;;;;15.23;10.13;;;9.90;55.40;;;;;;4934176;29;20188;-84
2024/01/23 11:42:41;;;;;;;16.67;10.10;;;9.90;55.30;;;;;;4952536;28;20177;-84
2024/01/23 11:45:21;;;;;;;19.27;10.07;;;9.90;55.40;;;;;;4933495;29;20212;-84
2024/01/23 11:47:48;;;;;;;20.17;9.70;;;10.00;54.70;;;;;;4937196;28;20183;-84
2024/01/23 11:50:15;;;;;;;17.80;10.03;;;10.00;54.70;;;;;;4948718;28;20220;-84
2024/01/23 11:52:46;;;;;;;17.67;10.33;;;10.00;54.50;;;;;;4936070;29;20204;-84
2024/01/23 11:55:12;;;;;;;16.50;9.87;;;10.10;54.60;;;;;;4935132;29;20213;-83
2024/01/23 11:57:37;;;;;;;16.70;9.70;;;10.00;54.50;;;;;;4950536;28;20196;-84
2024/01/23 12:00:04;;;;;;;16.53;9.20;;;10.00;54.50;;;;;;4934998;29;20228;-83
2024/01/23 12:02:30;;;;;;;16.90;9.07;;;10.00;54.50;;;;;;4936565;29;20178;-84
2024/01/23 12:04:56;;;;;;;14.80;9.00;;;10.00;54.50;;;;;;4951661;28;20200;-84
2024/01/23 12:07:21;;;;;;;20.70;9.63;;;10.00;54.50;;;;;;4934908;29;20211;-84
2024/01/23 12:09:47;;;;;;;15.63;8.77;;;10.00;54.50;;;;;;4935960;29;20200;-83
2024/01/23 12:12:13;;;;;;;13.00;7.83;;;10.00;54.50;;;;;;4932693;29;20225;-85
2024/01/23 12:14:39;;;;;;;13.77;7.60;;;10.00;54.60;;;;;;4952476;28;20292;-85
2024/01/23 12:17:05;;;;;;;15.47;8.03;;;10.00;54.50;;;;;;4935593;29;20554;-84
2024/01/23 12:19:49;;;;;;;15.57;7.70;;;10.10;54.50;;;;;;4949729;28;20662;-83
2024/01/23 12:22:16;;;;;;;15.13;7.60;;;10.10;54.40;;;;;;4934467;29;20215;-84
2024/01/23 12:24:42;;;;;;;20.53;7.17;;;10.10;54.50;;;;;;4935583;29;20186;-84
2024/01/23 12:27:08;;;;;;;14.17;6.77;;;10.20;54.40;;;;;;4951316;28;20209;-84
2024/01/23 12:29:35;;;;;;;13.97;6.87;;;10.00;54.10;;;;;;4936329;29;20264;-84
2024/01/23 12:32:01;;;;;;;14.47;6.67;;;10.00;54.20;;;;;;4935260;29;20647;-85
2024/01/23 12:34:29;;;;;;;16.20;7.00;;;10.10;54.50;;;;;;4934564;29;20192;-84
2024/01/23 12:36:59;;;;;;;17.50;8.20;;;10.10;54.40;;;;;;4935394;29;20674;-85